Time;durP1;ratioP1;P1;durP2;ratioP2;P2;SDS_P1;SDS_P2;PMS_P1;PMS_P2;Temp;Humidity;BMP_temperature;BMP_pressure;BME280_temperature;BME280_humidity;BME280_pressure;Samples;Min_cycle;Max_cycle;Signal;HPM_P1;HPM_P2
2024/03/26 00:00:48;;;;;;;4.97;1.00;;;;;;;;;;4953191;28;20610;-81
2024/03/26 00:03:16;;;;;;;8.50;1.30;;;;;;;;;;4953082;29;20047;-84
2024/03/26 00:05:44;;;;;;;6.80;1.52;;;;;;;;;;4953104;28;20054;-83
2024/03/26 00:08:12;;;;;;;12.40;1.55;;;;;;;;;;4958247;28;20502;-85
2024/03/26 00:10:40;;;;;;;7.28;1.42;;;;;;;;;;4956782;28;20043;-86
2024/03/26 00:13:09;;;;;;;6.95;1.40;;;;;;;;;;4940576;28;20055;-85
2024/03/26 00:15:37;;;;;;;9.75;1.30;;;;;;;;;;4973340;28;20097;-83
2024/03/26 00:18:08;;;;;;;4.60;1.30;;;;;;;;;;4960052;28;20387;-87
2024/03/26 00:20:36;;;;;;;12.13;2.22;;;;;;;;;;4959296;28;20506;-88
2024/03/26 00:23:06;;;;;;;6.05;1.38;;;;;;;;;;4975242;28;20050;-84
2024/03/26 00:25:34;;;;;;;11.65;1.30;;;;;;;;;;4958706;28;20055;-85
2024/03/26 00:28:02;;;;;;;6.13;1.05;;;;;;;;;;4943172;28;20054;-86
2024/03/26 00:30:30;;;;;;;5.90;1.15;;;;;;;;;;4959263;28;20038;-86
2024/03/26 00:33:00;;;;;;;5.60;1.48;;;;;;;;;;4959168;28;20502;-85
2024/03/26 00:35:28;;;;;;;4.13;1.48;;;;;;;;;;4968407;28;20055;-87
2024/03/26 00:37:57;;;;;;;7.78;1.63;;;;;;;;;;4955935;28;20374;-88
2024/03/26 00:40:25;;;;;;;9.80;1.05;;;;;;;;;;4983126;28;20066;-86
2024/03/26 00:42:53;;;;;;;7.55;1.63;;;;;;;;;;4961018;28;20490;-87
2024/03/26 00:45:22;;;;;;;12.23;1.70;;;;;;;;;;4955455;28;20046;-86
2024/03/26 00:47:51;;;;;;;7.93;1.58;;;;;;;;;;4966355;28;20063;-86
2024/03/26 00:50:19;;;;;;;9.18;1.75;;;;;;;;;;4942606;28;20043;-87
2024/03/26 00:52:48;;;;;;;9.43;1.80;;;;;;;;;;4956788;28;20046;-84
2024/03/26 00:55:16;;;;;;;7.80;1.50;;;;;;;;;;4958190;28;20054;-85
2024/03/26 00:57:46;;;;;;;6.90;1.90;;;;;;;;;;4974830;28;20058;-87
2024/03/26 01:00:16;;;;;;;4.78;1.45;;;;;;;;;;4973951;28;20111;-84
2024/03/26 01:02:46;;;;;;;7.28;1.48;;;;;;;;;;4956298;28;20047;-84
2024/03/26 01:05:14;;;;;;;10.85;1.65;;;;;;;;;;4973192;28;20073;-84
2024/03/26 01:07:42;;;;;;;6.75;1.60;;;;;;;;;;4957309;28;20061;-83
2024/03/26 01:10:11;;;;;;;11.75;1.30;;;;;;;;;;4941254;28;20054;-85
2024/03/26 01:12:40;;;;;;;9.88;1.45;;;;;;;;;;4957472;28;20050;-85
2024/03/26 01:15:10;;;;;;;7.68;1.27;;;;;;;;;;4957106;28;20043;-86
2024/03/26 01:17:39;;;;;;;9.00;1.60;;;;;;;;;;4940826;28;20054;-86
2024/03/26 01:20:08;;;;;;;6.88;1.65;;;;;;;;;;4970416;28;20531;-84
2024/03/26 01:22:38;;;;;;;9.38;1.73;;;;;;;;;;4968821;28;20054;-86
2024/03/26 01:25:07;;;;;;;8.05;1.63;;;;;;;;;;4963110;28;20062;-86
2024/03/26 01:27:36;;;;;;;5.63;1.48;;;;;;;;;;4954569;28;20070;-86
2024/03/26 01:30:10;;;;;;;12.60;1.55;;;;;;;;;;4955723;28;20055;-87
2024/03/26 01:32:40;;;;;;;8.10;1.83;;;;;;;;;;4939515;28;20430;-86
2024/03/26 01:35:09;;;;;;;8.10;2.20;;;;;;;;;;4937757;29;20055;-87
2024/03/26 01:37:38;;;;;;;6.45;1.77;;;;;;;;;;4938836;29;20050;-87
2024/03/26 01:40:09;;;;;;;8.02;1.45;;;;;;;;;;4937868;29;20078;-87
2024/03/26 01:42:38;;;;;;;6.53;1.95;;;;;;;;;;4955441;28;20505;-87
2024/03/26 01:45:07;;;;;;;8.05;1.60;;;;;;;;;;4939003;29;20078;-87
2024/03/26 01:47:37;;;;;;;5.00;1.50;;;;;;;;;;4939336;29;20055;-87
2024/03/26 01:50:11;;;;;;;6.80;1.60;;;;;;;;;;4937264;29;20047;-87
2024/03/26 01:52:40;;;;;;;7.40;1.60;;;;;;;;;;4937127;29;20051;-87
2024/03/26 01:55:09;;;;;;;9.85;1.77;;;;;;;;;;4953597;28;20494;-87
2024/03/26 01:57:37;;;;;;;4.78;1.70;;;;;;;;;;4938876;29;20059;-87
2024/03/26 02:00:06;;;;;;;6.50;1.90;;;;;;;;;;4938736;29;20498;-87
2024/03/26 02:02:41;;;;;;;5.53;1.70;;;;;;;;;;4939923;29;20059;-87
2024/03/26 02:05:10;;;;;;;8.45;1.60;;;;;;;;;;4939466;29;20058;-87
2024/03/26 02:07:38;;;;;;;7.43;1.90;;;;;;;;;;4938902;29;20047;-89
2024/03/26 02:10:08;;;;;;;8.05;1.50;;;;;;;;;;4939030;29;20055;-87
2024/03/26 02:12:36;;;;;;;11.02;1.77;;;;;;;;;;4939461;29;20051;-88
2024/03/26 02:15:04;;;;;;;6.30;1.80;;;;;;;;;;4955064;29;20058;-88
2024/03/26 02:17:32;;;;;;;6.47;1.65;;;;;;;;;;4939014;29;20047;-88
2024/03/26 02:20:03;;;;;;;6.65;1.80;;;;;;;;;;4938102;29;20066;-88
2024/03/26 02:22:33;;;;;;;7.55;3.15;;;;;;;;;;4954578;29;20063;-87
2024/03/26 02:25:03;;;;;;;8.32;1.70;;;;;;;;;;4923433;29;20497;-87
2024/03/26 02:27:33;;;;;;;5.10;1.75;;;;;;;;;;4955229;28;20062;-86
2024/03/26 02:30:03;;;;;;;9.15;2.25;;;;;;;;;;4954426;28;20043;-88
2024/03/26 02:32:31;;;;;;;10.50;2.00;;;;;;;;;;4938978;29;20051;-88
2024/03/26 02:34:59;;;;;;;8.55;2.83;;;;;;;;;;4938820;28;20486;-89
2024/03/26 02:37:28;;;;;;;10.57;1.83;;;;;;;;;;4939115;29;20043;-87
2024/03/26 02:39:56;;;;;;;7.72;1.90;;;;;;;;;;4938163;29;20565;-89
2024/03/26 02:42:25;;;;;;;9.02;1.95;;;;;;;;;;4939737;29;20058;-87
2024/03/26 02:44:53;;;;;;;8.63;1.88;;;;;;;;;;4954176;28;20146;-87
2024/03/26 02:47:21;;;;;;;4.20;1.90;;;;;;;;;;4938423;28;20051;-85
2024/03/26 02:49:49;;;;;;;4.47;1.70;;;;;;;;;;4954660;29;20051;-90
2024/03/26 02:52:17;;;;;;;6.50;1.63;;;;;;;;;;4937935;29;20067;-87
2024/03/26 02:54:46;;;;;;;5.35;2.00;;;;;;;;;;4938646;28;20062;-86
2024/03/26 02:57:14;;;;;;;8.77;1.98;;;;;;;;;;4938493;29;20055;-89
2024/03/26 02:59:42;;;;;;;3.90;1.75;;;;;;;;;;4938156;29;20071;-88
2024/03/26 03:02:10;;;;;;;7.88;1.90;;;;;;;;;;4948811;28;20073;-86
2024/03/26 03:04:38;;;;;;;4.90;1.80;;;;;;;;;;4940301;28;20054;-88
2024/03/26 03:07:09;;;;;;;11.65;1.92;;;;;;;;;;4972377;28;20047;-89
2024/03/26 03:09:40;;;;;;;5.50;2.28;;;;;;;;;;4952429;29;20065;-87
2024/03/26 03:12:08;;;;;;;8.18;1.77;;;;;;;;;;4959477;28;20043;-86
2024/03/26 03:14:36;;;;;;;6.78;2.35;;;;;;;;;;4981713;28;20523;-86
2024/03/26 03:17:04;;;;;;;6.88;1.88;;;;;;;;;;4956814;28;20051;-87
2024/03/26 03:19:32;;;;;;;4.50;2.00;;;;;;;;;;4968888;28;20070;-85
2024/03/26 03:22:01;;;;;;;5.45;2.10;;;;;;;;;;4937604;29;20518;-85
2024/03/26 03:24:29;;;;;;;8.90;2.67;;;;;;;;;;4954210;28;20410;-87
2024/03/26 03:26:57;;;;;;;6.20;2.50;;;;;;;;;;4954247;29;20055;-86
2024/03/26 03:29:25;;;;;;;12.10;2.10;;;;;;;;;;4937957;29;20055;-88
2024/03/26 03:31:53;;;;;;;6.57;2.90;;;;;;;;;;4937869;29;20491;-87
2024/03/26 03:34:21;;;;;;;6.38;2.15;;;;;;;;;;4953877;28;20051;-85
2024/03/26 03:36:49;;;;;;;15.60;2.92;;;;;;;;;;4937812;28;20059;-88
2024/03/26 03:39:18;;;;;;;11.73;3.22;;;;;;;;;;4937971;29;20048;-86
2024/03/26 03:41:49;;;;;;;;;;;;;;;;;;4954007;28;20418;-85
2024/03/26 03:44:17;;;;;;;7.97;2.60;;;;;;;;;;4937949;29;20293;-87
2024/03/26 03:46:45;;;;;;;8.50;2.53;;;;;;;;;;4937917;28;20487;-84
2024/03/26 03:49:13;;;;;;;10.55;2.78;;;;;;;;;;4937961;28;20056;-86
2024/03/26 03:51:41;;;;;;;9.40;2.20;;;;;;;;;;4940248;28;20054;-87
2024/03/26 03:54:09;;;;;;;8.77;2.58;;;;;;;;;;4941654;28;20051;-88
2024/03/26 03:56:38;;;;;;;10.65;2.33;;;;;;;;;;4957192;28;20068;-86
2024/03/26 03:59:06;;;;;;;5.72;2.25;;;;;;;;;;4957690;28;20063;-88
2024/03/26 04:01:34;;;;;;;7.63;2.92;;;;;;;;;;4942598;29;20112;-88
2024/03/26 04:04:02;;;;;;;11.05;2.63;;;;;;;;;;4956392;28;20055;-87
2024/03/26 04:06:30;;;;;;;6.97;2.28;;;;;;;;;;4947954;28;20058;-88
2024/03/26 04:08:58;;;;;;;10.95;3.38;;;;;;;;;;4961155;28;20051;-90
2024/03/26 04:11:28;;;;;;;9.05;2.80;;;;;;;;;;4944519;28;20074;-89
2024/03/26 04:13:56;;;;;;;10.60;3.10;;;;;;;;;;4944704;28;20054;-88
2024/03/26 04:16:24;;;;;;;8.45;2.72;;;;;;;;;;4945131;28;20051;-87
2024/03/26 04:18:52;;;;;;;7.68;2.72;;;;;;;;;;4960442;28;20050;-88
2024/03/26 04:21:20;;;;;;;9.63;3.38;;;;;;;;;;4944327;28;20059;-89
2024/03/26 04:23:48;;;;;;;8.40;2.67;;;;;;;;;;4943840;28;20085;-89
2024/03/26 04:26:17;;;;;;;9.13;3.22;;;;;;;;;;4960581;28;20046;-88
2024/03/26 04:28:45;;;;;;;11.07;2.95;;;;;;;;;;4944025;28;20077;-88
2024/03/26 04:31:14;;;;;;;10.60;2.97;;;;;;;;;;4944072;28;20055;-89
2024/03/26 04:33:42;;;;;;;7.40;3.00;;;;;;;;;;4944192;28;20062;-87
2024/03/26 04:36:10;;;;;;;13.68;3.00;;;;;;;;;;4944434;28;20051;-88
2024/03/26 04:38:38;;;;;;;11.00;3.15;;;;;;;;;;4943779;28;20050;-89
2024/03/26 04:41:06;;;;;;;10.77;3.80;;;;;;;;;;4959635;28;20390;-87
2024/03/26 04:43:34;;;;;;;8.68;3.03;;;;;;;;;;4943725;28;20490;-87
2024/03/26 04:46:03;;;;;;;10.85;3.28;;;;;;;;;;4975691;28;20046;-88
2024/03/26 04:48:31;;;;;;;6.78;2.60;;;;;;;;;;4959582;28;20061;-88
2024/03/26 04:50:59;;;;;;;8.07;3.03;;;;;;;;;;4975886;28;20046;-89
2024/03/26 04:53:27;;;;;;;10.05;3.17;;;;;;;;;;4943557;28;20062;-91
2024/03/26 04:55:55;;;;;;;7.30;2.63;;;;;;;;;;4943807;28;20061;-88
2024/03/26 04:58:23;;;;;;;7.07;2.03;;;;;;;;;;4943733;28;20058;-88
2024/03/26 05:00:53;;;;;;;5.78;2.30;;;;;;;;;;4975624;28;20050;-90
2024/03/26 05:03:21;;;;;;;9.27;2.00;;;;;;;;;;4959071;28;20059;-89
2024/03/26 05:05:49;;;;;;;9.25;2.55;;;;;;;;;;4960015;28;20062;-88
2024/03/26 05:08:17;;;;;;;7.85;2.00;;;;;;;;;;4943732;28;20051;-89
2024/03/26 05:10:46;;;;;;;7.30;1.90;;;;;;;;;;4959467;28;20494;-90
2024/03/26 05:13:14;;;;;;;6.75;1.83;;;;;;;;;;4959043;28;20050;-88
2024/03/26 05:15:42;;;;;;;4.00;1.88;;;;;;;;;;4975737;28;20050;-88
2024/03/26 05:18:11;;;;;;;8.82;1.60;;;;;;;;;;4943378;28;20054;-88
2024/03/26 05:20:39;;;;;;;7.53;2.25;;;;;;;;;;4975622;28;20042;-89
2024/03/26 05:23:07;;;;;;;9.35;2.55;;;;;;;;;;4975784;28;20405;-88
2024/03/26 05:25:36;;;;;;;8.68;2.67;;;;;;;;;;4965299;28;20061;-88
2024/03/26 05:28:05;;;;;;;7.28;2.72;;;;;;;;;;4979307;28;20062;-88
2024/03/26 05:30:34;;;;;;;10.88;2.92;;;;;;;;;;4964204;28;20046;-88
2024/03/26 05:33:02;;;;;;;10.18;2.78;;;;;;;;;;4977939;28;20035;-85
2024/03/26 05:35:30;;;;;;;15.35;2.72;;;;;;;;;;4961679;28;20061;-86
2024/03/26 05:38:00;;;;;;;6.75;2.38;;;;;;;;;;4960851;28;20063;-85
2024/03/26 05:40:28;;;;;;;5.90;1.92;;;;;;;;;;4951725;28;20063;-89
2024/03/26 05:42:57;;;;;;;6.50;1.88;;;;;;;;;;4943267;28;20066;-89
2024/03/26 05:45:25;;;;;;;8.63;2.10;;;;;;;;;;4942908;28;20505;-87
2024/03/26 05:47:53;;;;;;;7.45;2.35;;;;;;;;;;4942743;28;20517;-87
2024/03/26 05:50:21;;;;;;;8.57;2.83;;;;;;;;;;4958346;28;20055;-89
2024/03/26 05:52:50;;;;;;;10.40;2.60;;;;;;;;;;4958712;28;20055;-87
2024/03/26 05:55:18;;;;;;;7.25;2.58;;;;;;;;;;4958251;28;20047;-87
2024/03/26 05:57:46;;;;;;;8.38;2.80;;;;;;;;;;4942764;28;20058;-89
2024/03/26 06:00:15;;;;;;;9.73;2.60;;;;;;;;;;4959184;28;20047;-88
2024/03/26 06:02:43;;;;;;;9.80;2.20;;;;;;;;;;4958017;28;20065;-88
2024/03/26 06:05:11;;;;;;;7.57;2.80;;;;;;;;;;4936324;28;20054;-88
2024/03/26 06:07:39;;;;;;;5.80;2.55;;;;;;;;;;4973524;28;20039;-88
2024/03/26 06:10:08;;;;;;;12.18;2.92;;;;;;;;;;4957510;28;20480;-86
2024/03/26 06:12:40;;;;;;;8.38;3.30;;;;;;;;;;4973580;28;20429;-87
2024/03/26 06:15:09;;;;;;;8.63;3.10;;;;;;;;;;4955378;28;20059;-89
2024/03/26 06:17:37;;;;;;;5.82;2.30;;;;;;;;;;4957558;28;20051;-89
2024/03/26 06:20:08;;;;;;;9.32;2.47;;;;;;;;;;4957644;28;20055;-87
2024/03/26 06:22:36;;;;;;;5.00;2.13;;;;;;;;;;4974643;28;20046;-87
2024/03/26 06:25:05;;;;;;;8.70;1.98;;;;;;;;;;4973969;28;20047;-87
2024/03/26 06:27:33;;;;;;;4.65;2.30;;;;;;;;;;4957624;28;20050;-87
2024/03/26 06:30:04;;;;;;;5.63;1.83;;;;;;;;;;4956506;28;20046;-87
2024/03/26 06:32:32;;;;;;;6.07;2.08;;;;;;;;;;4956413;28;20078;-86
2024/03/26 06:35:00;;;;;;;6.45;2.03;;;;;;;;;;4957810;28;20057;-88
2024/03/26 06:37:29;;;;;;;8.00;1.60;;;;;;;;;;4941755;28;20429;-86
2024/03/26 06:39:57;;;;;;;3.50;1.80;;;;;;;;;;4957613;28;20069;-87
2024/03/26 06:42:25;;;;;;;3.83;1.80;;;;;;;;;;4957455;28;20061;-87
2024/03/26 06:44:53;;;;;;;5.90;2.00;;;;;;;;;;4957498;28;20467;-87
2024/03/26 06:47:25;;;;;;;9.50;2.45;;;;;;;;;;4957462;28;20046;-86
2024/03/26 06:49:55;;;;;;;5.22;2.00;;;;;;;;;;4941416;28;20058;-85
2024/03/26 06:52:23;;;;;;;6.10;1.75;;;;;;;;;;4941010;28;20061;-88
2024/03/26 06:54:51;;;;;;;7.07;2.08;;;;;;;;;;4955330;28;20047;-87
2024/03/26 06:57:19;;;;;;;6.93;2.35;;;;;;;;;;4947799;28;20058;-88
2024/03/26 06:59:49;;;;;;;5.60;2.05;;;;;;;;;;4947343;28;20043;-87
2024/03/26 07:02:17;;;;;;;5.93;1.77;;;;;;;;;;4965604;28;20047;-86
2024/03/26 07:04:45;;;;;;;7.95;1.90;;;;;;;;;;4946982;28;20055;-87
2024/03/26 07:07:13;;;;;;;4.63;1.90;;;;;;;;;;4955490;28;20047;-87
2024/03/26 07:09:42;;;;;;;7.43;1.77;;;;;;;;;;4969758;28;20418;-85
2024/03/26 07:12:10;;;;;;;4.15;1.77;;;;;;;;;;4957189;28;20054;-86
2024/03/26 07:14:38;;;;;;;8.90;2.20;;;;;;;;;;4957309;28;20386;-86
2024/03/26 07:17:07;;;;;;;4.60;1.92;;;;;;;;;;4966303;28;20043;-88
2024/03/26 07:19:35;;;;;;;5.90;2.72;;;;;;;;;;4949278;28;20047;-85
2024/03/26 07:22:04;;;;;;;5.60;2.00;;;;;;;;;;4950263;28;20058;-87
2024/03/26 07:24:32;;;;;;;6.72;1.90;;;;;;;;;;4946463;28;20062;-87
2024/03/26 07:27:00;;;;;;;6.25;2.10;;;;;;;;;;4967777;28;20050;-87
2024/03/26 07:29:28;;;;;;;6.07;2.50;;;;;;;;;;4960819;28;20055;-87
2024/03/26 07:31:56;;;;;;;4.38;2.47;;;;;;;;;;4960884;28;20401;-86
2024/03/26 07:34:25;;;;;;;5.70;1.70;;;;;;;;;;4960619;28;20051;-88
2024/03/26 07:36:53;;;;;;;8.20;1.80;;;;;;;;;;4976329;28;20062;-87
2024/03/26 07:39:22;;;;;;;6.47;2.03;;;;;;;;;;4952835;28;20055;-84
2024/03/26 07:41:50;;;;;;;7.75;1.92;;;;;;;;;;4941636;29;20078;-86
2024/03/26 07:44:18;;;;;;;8.85;2.63;;;;;;;;;;4941504;29;20430;-87
2024/03/26 07:46:46;;;;;;;8.13;2.33;;;;;;;;;;4941694;29;20534;-86
2024/03/26 07:49:14;;;;;;;12.48;2.20;;;;;;;;;;4941737;29;20051;-85
2024/03/26 07:51:42;;;;;;;8.35;2.63;;;;;;;;;;4941417;28;20059;-86
2024/03/26 07:54:11;;;;;;;6.82;2.00;;;;;;;;;;4941098;29;20058;-85
2024/03/26 07:56:39;;;;;;;5.20;2.25;;;;;;;;;;4941391;28;20521;-88
2024/03/26 07:59:07;;;;;;;6.53;2.03;;;;;;;;;;4941529;29;20062;-85
2024/03/26 08:01:35;;;;;;;4.97;1.90;;;;;;;;;;4956924;28;20047;-85
2024/03/26 08:04:04;;;;;;;5.43;2.03;;;;;;;;;;4941425;29;20047;-87
2024/03/26 08:06:32;;;;;;;7.57;2.17;;;;;;;;;;4940847;29;20058;-86
2024/03/26 08:09:02;;;;;;;9.65;2.60;;;;;;;;;;4941381;29;20378;-88
2024/03/26 08:11:32;;;;;;;5.63;2.08;;;;;;;;;;4941045;29;20063;-88
2024/03/26 08:14:00;;;;;;;5.85;1.67;;;;;;;;;;4940992;29;20395;-88
2024/03/26 08:16:29;;;;;;;11.48;2.55;;;;;;;;;;4941131;29;20059;-87
2024/03/26 08:18:57;;;;;;;6.75;2.28;;;;;;;;;;4940932;29;20047;-89
2024/03/26 08:21:26;;;;;;;9.23;2.33;;;;;;;;;;4941545;28;20055;-87
2024/03/26 08:23:54;;;;;;;9.73;1.90;;;;;;;;;;4940971;28;20066;-87
2024/03/26 08:26:23;;;;;;;10.80;2.03;;;;;;;;;;4958505;28;20050;-89
2024/03/26 08:28:51;;;;;;;8.70;2.25;;;;;;;;;;4976433;28;20117;-87
2024/03/26 08:31:19;;;;;;;5.18;2.42;;;;;;;;;;4976708;28;20065;-90
2024/03/26 08:33:47;;;;;;;15.55;3.72;;;;;;;;;;4943798;28;20059;-88
2024/03/26 08:36:16;;;;;;;11.65;3.20;;;;;;;;;;4943691;28;20059;-87
2024/03/26 08:38:47;;;;;;;9.55;3.60;;;;;;;;;;4944154;28;20386;-87
2024/03/26 08:41:17;;;;;;;8.15;2.70;;;;;;;;;;4944458;28;20054;-88
2024/03/26 08:43:45;;;;;;;14.70;3.90;;;;;;;;;;4959745;28;20046;-89
2024/03/26 08:46:14;;;;;;;7.60;2.92;;;;;;;;;;4937629;28;20055;-88
2024/03/26 08:48:45;;;;;;;12.20;4.03;;;;;;;;;;4955279;28;20059;-87
2024/03/26 08:51:13;;;;;;;7.13;2.85;;;;;;;;;;4958875;28;20055;-87
2024/03/26 08:53:41;;;;;;;8.68;2.40;;;;;;;;;;4959395;28;20050;-88
2024/03/26 08:56:09;;;;;;;10.00;2.72;;;;;;;;;;4959491;28;20512;-87
2024/03/26 08:58:37;;;;;;;9.18;2.70;;;;;;;;;;4959942;28;20055;-88
2024/03/26 09:01:08;;;;;;;7.40;2.30;;;;;;;;;;4975645;28;20494;-87
2024/03/26 09:03:38;;;;;;;10.00;2.38;;;;;;;;;;4958860;28;20050;-87
2024/03/26 09:06:10;;;;;;;11.35;2.15;;;;;;;;;;4944020;28;20058;-89
2024/03/26 09:08:38;;;;;;;8.20;2.30;;;;;;;;;;4958948;28;20047;-88
2024/03/26 09:11:06;;;;;;;7.50;2.42;;;;;;;;;;4959075;28;20043;-88
2024/03/26 09:13:39;;;;;;;7.55;2.38;;;;;;;;;;4942775;28;20054;-86
2024/03/26 09:16:08;;;;;;;7.10;2.83;;;;;;;;;;4959667;28;20054;-87
2024/03/26 09:18:36;;;;;;;13.18;2.63;;;;;;;;;;4958829;28;20055;-87
2024/03/26 09:21:05;;;;;;;6.45;2.13;;;;;;;;;;4959227;28;20047;-89
2024/03/26 09:23:33;;;;;;;6.82;2.28;;;;;;;;;;4974691;28;20402;-88
2024/03/26 09:26:03;;;;;;;5.45;1.92;;;;;;;;;;4974925;28;20442;-87
2024/03/26 09:28:31;;;;;;;8.30;2.90;;;;;;;;;;4975095;28;20164;-88
2024/03/26 09:30:59;;;;;;;5.95;2.60;;;;;;;;;;4958267;28;20435;-89
2024/03/26 09:33:27;;;;;;;6.43;2.45;;;;;;;;;;4974883;28;20050;-88
2024/03/26 09:35:55;;;;;;;5.82;2.53;;;;;;;;;;4958663;28;20063;-89
2024/03/26 09:38:23;;;;;;;7.93;2.60;;;;;;;;;;4958185;28;20058;-88
2024/03/26 09:40:59;;;;;;;7.68;2.53;;;;;;;;;;4958510;28;20077;-87
2024/03/26 09:43:29;;;;;;;5.15;2.58;;;;;;;;;;4959718;28;20346;-88
2024/03/26 09:45:59;;;;;;;8.73;2.30;;;;;;;;;;4942107;28;20127;-88
2024/03/26 09:48:28;;;;;;;6.70;2.50;;;;;;;;;;4973775;28;20050;-87
2024/03/26 09:50:59;;;;;;;5.55;2.65;;;;;;;;;;4974757;28;20058;-87
2024/03/26 09:53:29;;;;;;;8.02;2.58;;;;;;;;;;4960368;28;20389;-90
2024/03/26 09:55:57;;;;;;;5.75;2.13;;;;;;;;;;4977282;28;20058;-88
2024/03/26 09:58:25;;;;;;;7.68;2.42;;;;;;;;;;4975533;28;20057;-90
2024/03/26 10:00:54;;;;;;;10.75;2.45;;;;;;;;;;4958299;28;20062;-87
2024/03/26 10:03:27;;;;;;;8.75;2.72;;;;;;;;;;4974770;28;20489;-88
2024/03/26 10:05:56;;;;;;;8.05;2.92;;;;;;;;;;4974922;28;20034;-87
2024/03/26 10:08:25;;;;;;;10.55;3.13;;;;;;;;;;4974334;28;20043;-88
2024/03/26 10:10:55;;;;;;;8.75;3.35;;;;;;;;;;4957904;28;20403;-87
2024/03/26 10:13:24;;;;;;;9.18;3.22;;;;;;;;;;4959204;28;20062;-87
2024/03/26 10:15:53;;;;;;;11.07;3.00;;;;;;;;;;4974538;28;20042;-88
2024/03/26 10:18:21;;;;;;;10.27;2.95;;;;;;;;;;4958420;28;20062;-87
2024/03/26 10:20:53;;;;;;;9.70;3.40;;;;;;;;;;4974012;28;20043;-87
2024/03/26 10:23:21;;;;;;;13.48;3.53;;;;;;;;;;4957710;28;20070;-87
2024/03/26 10:25:50;;;;;;;6.60;2.72;;;;;;;;;;4958629;28;20035;-87
2024/03/26 10:28:23;;;;;;;10.90;3.15;;;;;;;;;;4957129;28;20043;-89
2024/03/26 10:30:53;;;;;;;14.48;3.50;;;;;;;;;;4957289;28;20078;-88
2024/03/26 10:33:26;;;;;;;14.18;5.40;;;;;;;;;;4950899;28;20047;-88
2024/03/26 10:35:56;;;;;;;13.43;5.07;;;;;;;;;;4952197;28;20525;-89
2024/03/26 10:38:28;;;;;;;13.32;6.32;;;;;;;;;;4971670;28;20043;-87
2024/03/26 10:41:25;;;;;;;17.42;7.40;;;;;;;;;;4952582;28;20055;-87
2024/03/26 10:43:55;;;;;;;16.98;5.38;;;;;;;;;;4957597;28;20534;-89
2024/03/26 10:46:25;;;;;;;11.98;5.10;;;;;;;;;;4970026;28;20055;-87
2024/03/26 10:49:01;;;;;;;7.28;3.35;;;;;;;;;;4958191;28;20050;-85
2024/03/26 10:51:32;;;;;;;18.02;5.90;;;;;;;;;;4969757;28;20102;-86
2024/03/26 10:54:02;;;;;;;32.35;15.35;;;;;;;;;;4954831;28;20071;-85
2024/03/26 10:56:33;;;;;;;63.72;29.60;;;;;;;;;;4938915;28;20066;-86
2024/03/26 10:59:27;;;;;;;48.95;24.02;;;;;;;;;;4985693;28;20051;-84
2024/03/26 11:01:57;;;;;;;26.95;11.90;;;;;;;;;;4982165;28;20054;-85
2024/03/26 11:04:26;;;;;;;13.63;5.95;;;;;;;;;;4967032;28;20055;-85
2024/03/26 11:06:58;;;;;;;13.10;4.63;;;;;;;;;;4954576;28;20666;-85
2024/03/26 11:09:27;;;;;;;11.05;3.70;;;;;;;;;;4966537;28;20681;-87
2024/03/26 11:11:59;;;;;;;7.65;3.20;;;;;;;;;;4939572;29;20413;-86
2024/03/26 11:14:41;;;;;;;8.63;3.50;;;;;;;;;;4949499;28;20433;-86
2024/03/26 11:17:13;;;;;;;9.48;2.78;;;;;;;;;;4953029;28;20046;-86
2024/03/26 11:19:45;;;;;;;7.40;2.63;;;;;;;;;;4950892;29;20039;-87
2024/03/26 11:22:15;;;;;;;12.23;2.92;;;;;;;;;;4954099;28;20478;-86
2024/03/26 11:24:47;;;;;;;8.40;3.10;;;;;;;;;;4971705;28;20054;-86
2024/03/26 11:27:19;;;;;;;17.38;3.08;;;;;;;;;;4953135;28;20054;-85
2024/03/26 11:29:48;;;;;;;45.55;5.78;;;;;;;;;;4964705;28;20509;-85
2024/03/26 11:32:18;;;;;;;10.27;2.65;;;;;;;;;;4955433;28;20062;-86
2024/03/26 11:34:48;;;;;;;11.93;2.50;;;;;;;;;;4937011;29;20062;-86
2024/03/26 11:37:16;;;;;;;10.57;3.47;;;;;;;;;;4952586;28;20050;-86
2024/03/26 11:39:45;;;;;;;7.00;2.33;;;;;;;;;;4970158;28;20047;-87
2024/03/26 11:42:14;;;;;;;6.40;2.83;;;;;;;;;;4939254;28;20062;-83
2024/03/26 11:44:43;;;;;;;9.05;2.22;;;;;;;;;;4965676;28;20517;-87
2024/03/26 11:47:13;;;;;;;6.22;2.85;;;;;;;;;;4954101;28;20058;-86
2024/03/26 11:49:41;;;;;;;10.23;3.85;;;;;;;;;;4947101;29;20062;-85
2024/03/26 11:52:10;;;;;;;8.90;2.78;;;;;;;;;;4966437;28;20055;-84
2024/03/26 11:54:39;;;;;;;7.18;2.45;;;;;;;;;;4947125;28;20047;-87
2024/03/26 11:57:07;;;;;;;3.95;2.17;;;;;;;;;;4972824;28;20058;-84
2024/03/26 11:59:36;;;;;;;6.47;2.55;;;;;;;;;;4971353;28;20051;-85
2024/03/26 12:02:06;;;;;;;21.00;2.60;;;;;;;;;;4965041;28;20054;-86
2024/03/26 12:04:35;;;;;;;7.93;2.90;;;;;;;;;;4959812;28;20105;-84
2024/03/26 12:07:06;;;;;;;10.30;2.92;;;;;;;;;;4961887;28;20498;-85
2024/03/26 12:09:38;;;;;;;9.15;3.85;;;;;;;;;;4962485;28;20398;-86
2024/03/26 12:12:10;;;;;;;6.05;2.65;;;;;;;;;;4944691;28;20058;-83
2024/03/26 12:14:39;;;;;;;;;;;;;;;;;;4975005;28;20524;-85
2024/03/26 12:17:08;;;;;;;5.82;2.40;;;;;;;;;;4975513;28;19922;-84
2024/03/26 12:19:43;;;;;;;11.13;2.95;;;;;;;;;;4974869;28;20506;-86
2024/03/26 12:22:17;;;;;;;6.25;2.53;;;;;;;;;;4966542;28;20512;-86
2024/03/26 12:24:50;;;;;;;4.68;2.05;;;;;;;;;;4975157;28;20059;-84
2024/03/26 12:27:19;;;;;;;7.15;2.40;;;;;;;;;;4969485;28;20054;-85
2024/03/26 12:29:47;;;;;;;5.13;2.05;;;;;;;;;;4956402;28;20079;-84
2024/03/26 12:32:19;;;;;;;6.88;2.03;;;;;;;;;;4975462;28;20070;-83
2024/03/26 12:34:50;;;;;;;;;;;;;;;;;;4975601;28;20051;-86
2024/03/26 12:37:20;;;;;;;6.30;2.70;;;;;;;;;;4959533;28;19929;-82
2024/03/26 12:39:50;;;;;;;4.88;1.95;;;;;;;;;;4975441;28;20051;-84
2024/03/26 12:42:18;;;;;;;5.40;1.90;;;;;;;;;;4975200;28;20047;-88
2024/03/26 12:44:46;;;;;;;4.13;1.73;;;;;;;;;;4974822;28;20065;-85
2024/03/26 12:47:17;;;;;;;5.20;1.92;;;;;;;;;;4958465;28;20425;-84
2024/03/26 12:49:48;;;;;;;3.78;1.45;;;;;;;;;;4973456;28;20474;-86
2024/03/26 12:52:21;;;;;;;3.60;2.00;;;;;;;;;;4950668;28;20054;-86
2024/03/26 12:54:50;;;;;;;4.00;1.75;;;;;;;;;;4970617;28;20042;-86
2024/03/26 12:57:27;;;;;;;3.10;1.77;;;;;;;;;;4966032;28;20074;-89
2024/03/26 12:59:58;;;;;;;4.93;1.80;;;;;;;;;;4961146;28;20039;-90
2024/03/26 13:02:30;;;;;;;3.08;1.45;;;;;;;;;;4974772;28;20218;-88
2024/03/26 13:04:59;;;;;;;5.07;1.60;;;;;;;;;;4959357;28;20042;-84
2024/03/26 13:07:29;;;;;;;4.68;1.60;;;;;;;;;;4970595;28;20070;-87
2024/03/26 13:09:58;;;;;;;3.45;1.70;;;;;;;;;;4939289;29;20059;-85
2024/03/26 13:12:29;;;;;;;4.72;1.65;;;;;;;;;;4952855;29;20040;-86
2024/03/26 13:14:57;;;;;;;3.13;1.95;;;;;;;;;;4959198;28;20061;-85
2024/03/26 13:17:28;;;;;;;3.20;1.70;;;;;;;;;;4953045;28;20073;-85
2024/03/26 13:19:58;;;;;;;2.38;1.48;;;;;;;;;;4939622;28;20048;-86
2024/03/26 13:22:28;;;;;;;3.55;2.22;;;;;;;;;;4954815;28;20867;-86
2024/03/26 13:24:56;;;;;;;5.63;1.80;;;;;;;;;;4953972;28;20051;-88
2024/03/26 13:27:26;;;;;;;4.85;1.63;;;;;;;;;;4961278;28;20047;-85
2024/03/26 13:29:55;;;;;;;3.55;1.98;;;;;;;;;;4974495;28;20437;-87
2024/03/26 13:32:23;;;;;;;3.08;1.73;;;;;;;;;;4965017;28;20051;-85
2024/03/26 13:34:52;;;;;;;3.78;1.52;;;;;;;;;;4939212;29;20050;-86
2024/03/26 13:37:23;;;;;;;3.53;1.65;;;;;;;;;;4956356;28;20184;-84
2024/03/26 13:39:52;;;;;;;4.90;1.55;;;;;;;;;;4971145;28;20505;-87
2024/03/26 13:42:20;;;;;;;2.95;1.75;;;;;;;;;;4975319;28;20065;-85
2024/03/26 13:44:49;;;;;;;3.00;1.92;;;;;;;;;;4956871;28;20047;-87
2024/03/26 13:47:18;;;;;;;2.95;1.50;;;;;;;;;;4969984;28;20043;-85
2024/03/26 13:49:46;;;;;;;3.75;1.88;;;;;;;;;;4953334;28;20058;-87
2024/03/26 13:52:19;;;;;;;5.18;1.80;;;;;;;;;;4952813;28;20050;-85
2024/03/26 13:54:52;;;;;;;5.70;1.67;;;;;;;;;;4958400;28;20073;-84
2024/03/26 13:57:23;;;;;;;3.30;1.60;;;;;;;;;;4961511;28;20501;-85
2024/03/26 13:59:52;;;;;;;3.65;1.67;;;;;;;;;;4959233;28;20433;-85
2024/03/26 14:02:25;;;;;;;5.05;1.58;;;;;;;;;;4963757;28;20051;-85
2024/03/26 14:04:55;;;;;;;4.95;1.60;;;;;;;;;;4971401;28;20043;-86
2024/03/26 14:07:23;;;;;;;4.13;1.80;;;;;;;;;;4955712;28;20054;-88
2024/03/26 14:09:53;;;;;;;6.40;1.63;;;;;;;;;;4955437;28;20077;-87
2024/03/26 14:12:21;;;;;;;2.67;1.67;;;;;;;;;;4971786;28;20050;-86
2024/03/26 14:14:50;;;;;;;4.55;1.73;;;;;;;;;;4960450;28;20514;-86
2024/03/26 14:17:18;;;;;;;3.33;1.65;;;;;;;;;;4953649;29;20040;-84
2024/03/26 14:19:50;;;;;;;2.83;1.40;;;;;;;;;;4951061;28;20502;-84
2024/03/26 14:22:23;;;;;;;6.53;1.83;;;;;;;;;;4971597;28;20046;-88
2024/03/26 14:24:52;;;;;;;3.92;1.63;;;;;;;;;;4964510;28;20051;-85
2024/03/26 14:27:21;;;;;;;2.20;1.58;;;;;;;;;;4948009;28;20046;-86
2024/03/26 14:29:50;;;;;;;3.42;1.55;;;;;;;;;;4941255;28;20057;-83
2024/03/26 14:32:19;;;;;;;4.78;1.88;;;;;;;;;;4972455;28;20061;-85
2024/03/26 14:34:47;;;;;;;6.65;1.50;;;;;;;;;;4956263;28;20057;-83
2024/03/26 14:37:18;;;;;;;3.55;1.67;;;;;;;;;;4968240;28;20043;-85
2024/03/26 14:39:50;;;;;;;3.67;1.40;;;;;;;;;;4955349;28;20062;-84
2024/03/26 14:42:18;;;;;;;2.45;1.70;;;;;;;;;;4973110;28;20046;-85
2024/03/26 14:44:47;;;;;;;4.30;1.60;;;;;;;;;;4956413;28;20536;-85
2024/03/26 14:47:15;;;;;;;3.20;1.70;;;;;;;;;;4973456;28;20061;-86
2024/03/26 14:49:44;;;;;;;3.55;1.70;;;;;;;;;;4972952;28;20057;-84
2024/03/26 14:52:15;;;;;;;3.30;1.50;;;;;;;;;;4955295;28;20058;-85